Time;durP1;ratioP1;P1;durP2;ratioP2;P2;SDS_P1;SDS_P2;PMS_P1;PMS_P2;Temp;Humidity;BMP_temperature;BMP_pressure;BME280_temperature;BME280_humidity;BME280_pressure;Samples;Min_cycle;Max_cycle;Signal;HPM_P1;HPM_P2
2023/01/28 00:01:19;;;;;;;9.43;5.80;;;;;;;4.69;91.45;101739.16;8356819;28;20506;-54
2023/01/28 00:05:21;;;;;;;7.93;4.97;;;;;;;4.70;90.80;101745.38;8356527;28;20033;-54
2023/01/28 00:09:22;;;;;;;7.13;5.05;;;;;;;4.68;90.94;101747.25;8356649;28;20120;-54
2023/01/28 00:13:22;;;;;;;5.95;4.60;;;;;;;4.68;89.65;101748.13;8356276;28;20063;-55
2023/01/28 00:17:23;;;;;;;6.15;4.63;;;;;;;4.68;89.67;101752.63;8355420;28;20059;-55
2023/01/28 00:21:23;;;;;;;6.63;4.43;;;;;;;4.68;89.10;101741.91;8355096;28;20037;-53
2023/01/28 00:25:24;;;;;;;5.28;4.50;;;;;;;4.65;88.84;101742.06;8355481;28;20414;-54
2023/01/28 00:29:24;;;;;;;6.22;4.10;;;;;;;4.65;88.83;101742.06;8356229;28;20498;-54
2023/01/28 00:33:25;;;;;;;6.15;3.92;;;;;;;4.58;88.83;101735.25;8356409;28;20075;-53
2023/01/28 00:37:25;;;;;;;5.10;3.72;;;;;;;4.56;89.17;101731.78;8361793;28;20513;-54
2023/01/28 00:41:28;;;;;;;7.57;4.22;;;;;;;4.49;89.13;101724.97;8363821;28;20040;-54
2023/01/28 00:45:28;;;;;;;7.18;4.70;;;;;;;4.43;89.80;101730.63;8365098;28;20071;-54
2023/01/28 00:49:30;;;;;;;6.47;4.93;;;;;;;4.29;90.34;101733.06;8364991;28;20052;-54
2023/01/28 00:53:30;;;;;;;7.40;5.10;;;;;;;4.18;90.75;101735.38;8364989;28;20042;-54
2023/01/28 00:57:31;;;;;;;6.47;4.60;;;;;;;4.06;91.16;101743.03;8364072;28;20045;-54
2023/01/28 01:01:31;;;;;;;6.95;5.95;;;;;;;4.00;91.53;101747.81;8364306;28;20041;-54
2023/01/28 01:05:33;;;;;;;7.78;4.95;;;;;;;3.92;91.98;101734.78;8364123;28;20071;-54
2023/01/28 01:09:34;;;;;;;9.18;5.55;;;;;;;3.83;92.23;101735.19;8364232;28;20029;-54
2023/01/28 01:13:36;;;;;;;8.38;5.55;;;;;;;3.74;92.24;101724.91;8362261;28;20072;-55
2023/01/28 01:17:37;;;;;;;8.95;6.10;;;;;;;3.65;93.20;101735.13;8358003;28;20213;-54
2023/01/28 01:21:40;;;;;;;8.45;5.85;;;;;;;3.51;94.01;101738.38;8361458;28;20087;-55
2023/01/28 01:25:40;;;;;;;8.45;6.15;;;;;;;3.46;94.81;101745.75;8350486;28;20037;-53
2023/01/28 01:29:41;;;;;;;9.20;5.68;;;;;;;3.44;94.94;101747.63;8330690;28;20111;-58
2023/01/28 01:33:43;;;;;;;10.82;6.70;;;;;;;3.34;95.38;101742.72;8355964;28;20555;-58
2023/01/28 01:37:43;;;;;;;10.65;7.25;;;;;;;3.32;95.57;101741.91;8360825;28;20565;-58
2023/01/28 01:41:44;;;;;;;9.77;6.45;;;;;;;3.25;95.82;101745.78;8363189;28;20458;-59
2023/01/28 01:45:50;;;;;;;13.18;6.68;;;;;;;3.18;95.71;101745.19;8361936;28;20060;-59
2023/01/28 01:49:51;;;;;;;9.98;6.50;;;;;;;3.18;95.66;101745.19;8343537;28;20040;-58
2023/01/28 01:53:55;;;;;;;10.40;6.00;;;;;;;3.20;95.07;101743.31;8329115;28;20037;-58
2023/01/28 01:57:58;;;;;;;7.82;5.60;;;;;;;3.15;94.56;101745.31;8361675;28;20487;-58
2023/01/28 02:02:04;;;;;;;7.53;5.85;;;;;;;3.09;95.09;101745.56;8361980;28;20044;-58
2023/01/28 02:06:04;;;;;;;10.23;6.60;;;;;;;3.10;95.55;101763.31;8362443;28;20060;-59
2023/01/28 02:10:07;;;;;;;11.88;6.70;;;;;;;3.00;96.21;101761.97;8362147;28;20040;-58
2023/01/28 02:14:07;;;;;;;13.10;7.75;;;;;;;3.04;96.60;101758.25;8362000;28;20422;-58
2023/01/28 02:18:08;;;;;;;11.48;7.28;;;;;;;3.13;96.36;101757.88;8362357;28;20049;-58
2023/01/28 02:27:03;;;;;;;15.23;8.30;;;;;;;2.97;96.88;101756.75;8318292;28;20921;-55
2023/01/28 02:31:13;;;;;;;13.05;8.25;;;;;;;3.06;97.42;101761.72;8319627;28;20411;-55
2023/01/28 02:35:30;;;;;;;15.40;9.02;;;;;;;3.09;97.09;101756.25;8321618;28;20040;-57
2023/01/28 02:39:39;;;;;;;16.48;9.05;;;;;;;3.03;97.37;101761.84;8320729;28;20052;-58
2023/01/28 02:43:45;;;;;;;19.83;8.85;;;;;;;3.09;97.06;101768.72;8299551;28;20451;-57
2023/01/28 02:48:01;;;;;;;17.50;9.40;;;;;;;3.15;96.76;101766.69;8288814;28;20075;-58
2023/01/28 02:56:37;;;;;;;14.43;8.95;;;;;;;3.29;95.71;101776.78;8417252;27;20514;-52
2023/01/28 03:00:49;;;;;;;14.90;9.73;;;;;;;3.37;94.86;101782.69;8386985;28;20090;-56
2023/01/28 03:05:04;;;;;;;14.52;9.88;;;;;;;3.41;94.28;101782.50;8400898;28;20066;-56
2023/01/28 03:09:25;;;;;;;16.48;9.05;;;;;;;3.43;94.27;101794.00;8403846;28;20044;-57
2023/01/28 03:36:55;;;;;;;11.15;8.10;;;;;;;3.55;90.38;101793.47;8402805;27;20036;-57
2023/01/28 03:40:17;;;;;;;16.88;8.98;;;;;;;3.58;90.29;101801.38;8396898;27;20078;-58
2023/01/28 03:45:20;;;;;;;12.98;8.27;;;;;;;3.55;89.85;101798.84;8402686;27;20402;-59
2023/01/28 03:48:39;;;;;;;12.43;8.30;;;;;;;3.53;90.90;101803.38;8402606;27;20040;-57
2023/01/28 03:52:42;;;;;;;12.32;8.65;;;;;;;3.54;90.96;101807.75;8402673;27;20047;-56
2023/01/28 03:57:05;;;;;;;14.55;8.43;;;;;;;3.52;90.31;101809.66;8397659;27;20056;-55
2023/01/28 04:01:05;;;;;;;11.18;8.27;;;;;;;3.55;90.05;101814.00;8400807;27;20490;-56
2023/01/28 04:05:11;;;;;;;14.40;8.57;;;;;;;3.52;90.52;101812.31;8394810;28;20131;-56
2023/01/28 04:09:14;;;;;;;10.70;7.90;;;;;;;3.50;90.36;101807.97;8380367;28;20070;-57
2023/01/28 04:13:35;;;;;;;13.02;7.80;;;;;;;3.49;90.19;101809.78;8395469;28;20037;-56
2023/01/28 04:17:36;;;;;;;12.48;8.02;;;;;;;3.48;89.32;101818.72;8395350;28;20406;-57
2023/01/28 04:21:44;;;;;;;11.20;7.53;;;;;;;3.48;89.30;101810.69;8396570;28;20124;-57
2023/01/28 04:25:49;;;;;;;13.35;8.30;;;;;;;3.45;89.61;101813.50;8395172;28;20036;-57
2023/01/28 04:29:50;;;;;;;12.00;7.95;;;;;;;3.46;89.70;101825.94;8396140;28;20033;-57
2023/01/28 04:34:08;;;;;;;13.35;8.18;;;;;;;3.46;90.27;101828.63;8378934;28;20494;-55
2023/01/28 04:38:19;;;;;;;13.05;8.32;;;;;;;3.44;90.13;101827.81;8377789;28;20489;-58
2023/01/28 04:42:32;;;;;;;13.98;9.52;;;;;;;3.43;90.50;101820.72;8378856;28;20051;-57
2023/01/28 04:46:42;;;;;;;14.02;8.80;;;;;;;3.42;90.90;101828.81;8378672;28;20037;-56
2023/01/28 04:50:47;;;;;;;12.10;8.65;;;;;;;3.41;90.97;101840.41;8378973;28;20391;-57
2023/01/28 04:54:54;;;;;;;17.90;9.23;;;;;;;3.39;91.13;101839.63;8386180;28;20413;-56
2023/01/28 04:58:55;;;;;;;16.38;10.10;;;;;;;3.38;91.36;101838.75;8394682;28;20048;-56
2023/01/28 05:02:57;;;;;;;15.63;9.93;;;;;;;3.41;91.41;101838.63;8394739;28;20074;-56
2023/01/28 05:06:58;;;;;;;20.40;10.73;;;;;;;3.39;91.87;101837.81;8376462;28;20044;-58
2023/01/28 05:11:05;;;;;;;18.40;11.27;;;;;;;3.37;91.39;101837.03;8394645;28;20102;-56
2023/01/28 05:15:07;;;;;;;17.80;11.50;;;;;;;3.38;91.18;101836.06;8360989;28;20490;-56
2023/01/28 05:19:07;;;;;;;19.60;12.00;;;;;;;3.40;91.13;101836.91;8359846;28;20417;-57
2023/01/28 05:23:12;;;;;;;18.67;13.07;;;;;;;3.38;91.31;101833.41;8360500;28;20031;-56
2023/01/28 05:27:31;;;;;;;26.67;14.43;;;;;;;3.38;91.26;101833.41;8371456;28;20040;-57
2023/01/28 05:31:32;;;;;;;27.65;17.63;;;;;;;3.38;91.58;101838.75;8377694;28;20041;-55
2023/01/28 05:35:35;;;;;;;31.60;18.83;;;;;;;3.38;91.84;101841.41;8377087;28;20044;-54
2023/01/28 05:39:35;;;;;;;35.13;20.83;;;;;;;3.36;92.10;101845.94;8370283;28;20529;-57
2023/01/28 05:43:36;;;;;;;42.25;23.05;;;;;;;3.35;91.85;101844.22;8376577;28;20525;-57
2023/01/28 05:47:47;;;;;;;42.10;22.10;;;;;;;3.37;91.97;101845.03;8377018;28;20086;-57
2023/01/28 05:51:57;;;;;;;43.30;22.23;;;;;;;3.34;92.09;101839.81;8376570;28;20033;-57
2023/01/28 05:55:58;;;;;;;49.25;22.88;;;;;;;3.32;92.04;101843.47;8376053;28;20036;-57
2023/01/28 05:59:59;;;;;;;41.13;20.75;;;;;;;3.33;91.82;101846.06;8376196;28;20068;-56
2023/01/28 06:04:00;;;;;;;43.55;22.55;;;;;;;3.28;91.84;101856.09;8376231;28;20489;-56
2023/01/28 06:08:04;;;;;;;40.38;20.20;;;;;;;3.22;91.65;101842.97;8376339;28;20043;-54
2023/01/28 06:12:05;;;;;;;46.92;21.20;;;;;;;3.28;91.56;101864.13;8374491;28;20040;-56
2023/01/28 06:16:13;;;;;;;40.25;20.23;;;;;;;3.26;92.07;101865.97;8375144;28;20043;-56
2023/01/28 06:20:27;;;;;;;46.92;21.40;;;;;;;3.26;91.53;101870.47;8366560;28;20041;-57
2023/01/28 06:24:30;;;;;;;40.47;20.33;;;;;;;3.23;91.32;101881.28;8360443;28;20041;-56
2023/01/28 06:28:31;;;;;;;45.30;20.77;;;;;;;3.23;91.63;101882.13;8334573;28;20158;-56
2023/01/28 06:32:32;;;;;;;43.05;20.48;;;;;;;3.24;91.28;101885.69;8392111;28;20044;-57
2023/01/28 06:36:33;;;;;;;40.95;20.15;;;;;;;3.23;91.39;101876.78;8391375;28;20516;-55
2023/01/28 06:40:33;;;;;;;43.40;20.80;;;;;;;3.23;91.12;101875.94;8390971;28;20448;-56
2023/01/28 06:44:34;;;;;;;39.60;19.38;;;;;;;3.18;90.68;101870.78;8378024;28;20042;-56
2023/01/28 06:48:34;;;;;;;39.08;19.27;;;;;;;3.19;90.57;101867.16;8387828;28;20033;-56
2023/01/28 06:52:34;;;;;;;41.13;18.80;;;;;;;3.18;90.53;101877.91;8374981;28;20032;-56
2023/01/28 06:56:35;;;;;;;41.20;18.15;;;;;;;3.17;90.52;101882.38;8373577;28;20041;-60
2023/01/28 07:00:36;;;;;;;40.20;19.58;;;;;;;3.15;90.59;101878.91;8372163;28;20033;-57
2023/01/28 07:04:37;;;;;;;39.47;18.65;;;;;;;3.16;90.19;101877.09;8373693;28;20043;-57
2023/01/28 07:08:38;;;;;;;38.42;18.35;;;;;;;3.13;90.41;101880.75;8373572;28;20048;-56
2023/01/28 07:12:39;;;;;;;35.60;18.45;;;;;;;3.14;90.22;101887.81;8371658;28;20088;-57
2023/01/28 07:16:39;;;;;;;37.92;18.98;;;;;;;3.12;90.34;101884.38;8373469;28;20111;-56
2023/01/28 07:20:39;;;;;;;41.45;19.02;;;;;;;3.11;90.14;101887.94;8371104;28;20079;-55
2023/01/28 07:24:40;;;;;;;37.97;19.27;;;;;;;3.12;90.07;101889.72;8374277;28;20048;-56
2023/01/28 07:28:40;;;;;;;36.08;18.77;;;;;;;3.12;89.86;101889.72;8339278;28;20067;-56
2023/01/28 07:32:41;;;;;;;35.03;17.83;;;;;;;3.13;89.97;101891.44;8340004;28;20414;-56
2023/01/28 07:36:41;;;;;;;38.55;18.02;;;;;;;3.09;88.80;101887.16;8341362;28;20041;-56
2023/01/28 07:40:42;;;;;;;29.88;14.50;;;;;;;3.12;87.96;101900.41;8344067;28;20064;-56
2023/01/28 07:44:42;;;;;;;31.15;16.02;;;;;;;3.14;87.76;101903.88;8377798;28;21148;-57
2023/01/28 07:48:43;;;;;;;26.27;14.63;;;;;;;3.06;87.08;101900.63;8380798;28;20045;-56
2023/01/28 07:52:44;;;;;;;27.13;15.65;;;;;;;3.09;86.63;101899.63;8380312;28;20049;-57
2023/01/28 07:56:45;;;;;;;25.17;13.82;;;;;;;3.10;86.60;101891.56;8355162;28;20033;-58
2023/01/28 08:00:45;;;;;;;19.40;12.00;;;;;;;3.08;85.64;101898.75;8344644;28;20049;-56
2023/01/28 08:04:46;;;;;;;22.98;12.40;;;;;;;3.11;85.06;101905.81;8355289;28;20044;-57
2023/01/28 08:08:47;;;;;;;23.40;12.57;;;;;;;3.12;85.66;101900.41;8366156;28;20041;-54
2023/01/28 08:12:51;;;;;;;22.08;12.60;;;;;;;3.17;85.38;101909.09;8361639;28;20048;-56
2023/01/28 08:16:51;;;;;;;25.33;14.33;;;;;;;3.18;86.32;101926.88;8367614;28;20517;-56
2023/01/28 08:20:56;;;;;;;23.85;13.65;;;;;;;3.17;85.71;101919.78;8361204;28;20708;-55
2023/01/28 08:24:56;;;;;;;27.45;15.05;;;;;;;3.15;85.50;101936.81;8357126;28;20041;-57
2023/01/28 08:28:57;;;;;;;23.48;13.77;;;;;;;3.13;85.10;101928.84;8377712;28;20175;-56
2023/01/28 08:32:59;;;;;;;24.55;13.35;;;;;;;3.14;84.35;101935.94;8364096;28;20068;-56
2023/01/28 08:36:59;;;;;;;23.45;13.98;;;;;;;3.17;83.31;101930.47;8392880;28;20093;-56
2023/01/28 08:41:00;;;;;;;24.48;13.50;;;;;;;3.16;83.09;101923.38;8385541;28;20060;-56
2023/01/28 08:45:00;;;;;;;26.90;14.80;;;;;;;3.24;84.20;101937.34;8373047;28;20087;-57
2023/01/28 08:49:01;;;;;;;27.50;14.98;;;;;;;3.23;83.99;101935.56;8382996;28;20520;-57
2023/01/28 08:53:06;;;;;;;22.15;13.07;;;;;;;3.22;82.61;101944.53;8375438;28;20045;-56
2023/01/28 08:57:06;;;;;;;26.90;14.32;;;;;;;3.23;82.77;101945.41;8375013;28;20041;-57
2023/01/28 09:01:07;;;;;;;28.05;14.98;;;;;;;3.22;82.27;101949.00;8368100;28;20041;-54
2023/01/28 09:05:08;;;;;;;24.88;14.68;;;;;;;3.20;81.04;101967.75;8361562;28;20128;-53
2023/01/28 09:09:08;;;;;;;24.20;14.07;;;;;;;3.21;81.09;101964.16;8371151;28;20033;-52
2023/01/28 09:13:11;;;;;;;28.48;15.50;;;;;;;3.22;81.21;101960.56;8361565;28;20502;-52
2023/01/28 09:17:12;;;;;;;28.38;15.43;;;;;;;3.20;80.81;101973.09;8370367;28;20063;-55
2023/01/28 09:21:12;;;;;;;23.17;13.65;;;;;;;3.21;81.22;101977.53;8361312;28;21703;-55
2023/01/28 09:25:13;;;;;;;25.13;14.52;;;;;;;3.16;81.00;101982.16;8362040;28;20041;-55
2023/01/28 09:29:13;;;;;;;28.33;15.25;;;;;;;3.12;80.65;101996.59;8379933;28;20044;-55
2023/01/28 09:33:14;;;;;;;28.98;15.15;;;;;;;3.20;81.23;101999.81;8355086;28;20053;-55
2023/01/28 09:37:14;;;;;;;21.77;14.32;;;;;;;3.15;80.42;102001.81;8355218;28;20068;-55
2023/01/28 09:41:26;;;;;;;25.23;13.90;;;;;;;3.16;79.70;102014.22;8351889;28;20070;-55
2023/01/28 09:45:45;;;;;;;25.20;14.23;;;;;;;3.10;79.61;102017.13;8362919;28;20067;-55
2023/01/28 09:49:50;;;;;;;24.65;14.15;;;;;;;3.06;79.63;102018.19;8375320;28;20126;-55
2023/01/28 09:53:54;;;;;;;26.17;14.23;;;;;;;3.11;79.18;102016.19;8367407;28;20037;-54
2023/01/28 09:57:55;;;;;;;25.90;16.17;;;;;;;3.08;79.10;102021.66;8355967;28;20521;-54
2023/01/28 10:02:35;;;;;;;29.30;14.93;;;;;;;3.11;78.59;102021.53;8365611;28;20098;-54
2023/01/28 10:07:04;;;;;;;29.13;15.65;;;;;;;3.11;78.59;102024.22;8367178;28;20726;-53
2023/01/28 10:11:29;;;;;;;27.75;16.20;;;;;;;3.11;78.83;102032.22;8364491;28;20128;-54
2023/01/28 10:20:20;;;;;;;24.10;14.35;;;;;;;3.09;77.76;102034.09;8321273;28;20766;-53
2023/01/28 10:24:44;;;;;;;27.85;14.93;;;;;;;3.16;78.07;102027.59;8320487;28;20041;-55
2023/01/28 10:28:52;;;;;;;28.52;14.93;;;;;;;3.17;77.04;102023.97;8312948;28;20036;-54
2023/01/28 10:32:58;;;;;;;29.10;16.65;;;;;;;3.16;77.22;102029.38;8316366;28;20057;-56
2023/01/28 10:36:59;;;;;;;26.58;16.27;;;;;;;3.15;76.29;102033.88;8316070;28;20394;-55
2023/01/28 10:41:02;;;;;;;24.45;15.60;;;;;;;3.19;76.51;102034.63;8294193;28;20049;-55
2023/01/28 10:45:14;;;;;;;23.08;14.65;;;;;;;3.19;76.62;102039.94;8282073;28;20034;-55
2023/01/28 10:49:21;;;;;;;25.42;15.02;;;;;;;3.12;75.85;102034.00;8282381;28;20110;-55
2023/01/28 10:53:43;;;;;;;24.40;15.52;;;;;;;3.24;75.93;102022.84;8281051;28;20042;-56
2023/01/28 10:57:43;;;;;;;26.23;15.82;;;;;;;3.23;75.74;102022.91;8307636;28;20053;-56
2023/01/28 11:01:48;;;;;;;23.92;15.23;;;;;;;3.15;74.85;102016.97;8316856;28;20099;-55
2023/01/28 11:05:51;;;;;;;;;;;;;;;3.14;75.17;102015.22;8313638;28;20129;-53
2023/01/28 11:09:51;;;;;;;25.17;16.30;;;;;;;3.14;75.30;102013.41;8316117;28;20529;-54
2023/01/28 11:13:53;;;;;;;24.27;15.48;;;;;;;3.17;75.29;102029.31;8316921;28;20041;-54
2023/01/28 11:18:01;;;;;;;26.30;16.15;;;;;;;3.17;75.35;102032.00;8314927;28;20049;-54
2023/01/28 11:22:02;;;;;;;25.38;15.50;;;;;;;3.20;75.66;102029.22;8317464;28;20066;-54
2023/01/28 11:26:08;;;;;;;22.80;14.60;;;;;;;3.25;75.00;102024.56;8316551;28;20038;-54
2023/01/28 11:30:22;;;;;;;22.30;14.15;;;;;;;3.18;75.32;102020.41;8300166;28;20139;-54
2023/01/28 11:34:26;;;;;;;24.70;15.02;;;;;;;3.15;74.64;102015.16;8294932;28;20050;-54
2023/01/28 11:38:27;;;;;;;21.45;13.95;;;;;;;3.14;74.87;102021.41;8285318;28;20129;-54
2023/01/28 11:42:27;;;;;;;23.20;14.40;;;;;;;3.15;75.19;102017.84;8293750;28;20053;-55
2023/01/28 11:51:33;;;;;;;28.48;16.73;;;;;;;3.14;74.90;102031.25;8313344;28;20975;-52
2023/01/28 11:56:04;;;;;;;29.10;16.15;;;;;;;3.16;73.82;102024.91;8297169;28;20056;-53
2023/01/28 12:00:34;;;;;;;24.20;14.48;;;;;;;3.13;74.60;102030.38;8312826;28;20065;-54
2023/01/28 12:05:04;;;;;;;26.25;17.27;;;;;;;3.13;74.79;102014.34;8304885;28;20033;-53
2023/01/28 12:09:16;;;;;;;26.85;15.73;;;;;;;3.19;75.24;102022.13;8316019;28;20569;-54
2023/01/28 12:17:48;;;;;;;33.17;19.15;;;;;;;3.19;74.42;102008.78;8409276;27;20758;-54
2023/01/28 12:22:04;;;;;;;31.80;18.20;;;;;;;3.14;74.49;102004.53;8395981;27;20047;-53
2023/01/28 12:30:48;;;;;;;26.58;17.08;;;;;;;3.12;72.70;102004.59;8314531;27;20721;-55
2023/01/28 12:35:15;;;;;;;32.25;17.17;;;;;;;3.15;73.12;102006.28;8307750;28;20486;-56
2023/01/28 12:39:45;;;;;;;26.55;15.85;;;;;;;3.18;72.62;102007.03;8289263;28;20278;-55
2023/01/28 12:43:55;;;;;;;27.50;16.25;;;;;;;3.24;73.31;102003.25;8311193;28;20121;-55
2023/01/28 12:48:06;;;;;;;26.02;16.15;;;;;;;3.23;73.00;101999.69;8311770;28;20044;-55
2023/01/28 12:52:17;;;;;;;27.63;15.07;;;;;;;3.25;72.91;102000.53;8295973;28;20490;-55
2023/01/28 12:56:22;;;;;;;22.20;14.77;;;;;;;3.26;72.48;101983.56;8283303;28;20064;-53
2023/01/28 13:00:33;;;;;;;19.67;14.68;;;;;;;3.28;72.75;101987.03;8295200;28;20107;-54
2023/01/28 13:04:47;;;;;;;22.48;14.75;;;;;;;3.32;73.13;101986.00;8293382;28;20126;-54
2023/01/28 13:08:48;;;;;;;;;;;;;;;3.23;72.73;101972.97;8296305;28;20092;-55
2023/01/28 13:12:49;;;;;;;25.98;14.23;;;;;;;3.31;73.04;101970.00;8300169;28;20426;-55
2023/01/28 13:16:49;;;;;;;23.73;15.68;;;;;;;3.46;72.98;101950.72;8314561;28;20101;-55
2023/01/28 13:20:50;;;;;;;23.30;14.52;;;;;;;3.44;72.45;101945.41;8292958;28;20042;-55
2023/01/28 13:24:50;;;;;;;29.52;16.13;;;;;;;3.67;73.74;101945.38;8297203;28;20111;-53
2023/01/28 13:28:53;;;;;;;23.80;15.95;;;;;;;3.62;72.55;101939.34;8302059;28;20042;-54
2023/01/28 13:33:03;;;;;;;24.92;15.70;;;;;;;3.53;73.26;101914.75;8301090;28;20140;-54
2023/01/28 13:37:23;;;;;;;26.77;15.25;;;;;;;3.58;72.13;101904.75;8300389;28;20033;-55
2023/01/28 13:41:35;;;;;;;25.83;16.20;;;;;;;3.56;71.73;101902.16;8294705;28;20454;-55
2023/01/28 13:45:35;;;;;;;22.70;13.82;;;;;;;3.44;71.17;101885.72;8280858;28;20038;-54
2023/01/28 13:49:43;;;;;;;26.83;15.55;;;;;;;3.29;72.60;101911.28;8273863;28;20112;-53
2023/01/28 13:53:54;;;;;;;26.58;15.77;;;;;;;3.26;72.19;101935.44;8271423;28;20050;-52
2023/01/28 14:07:23;;;;;;;26.52;16.58;;;;;;;3.50;71.47;101931.81;8352863;28;21049;-53
2023/01/28 14:11:51;;;;;;;25.00;15.80;;;;;;;3.46;71.42;101948.91;8350152;28;20037;-54
2023/01/28 14:16:05;;;;;;;32.30;17.58;;;;;;;3.39;73.20;101943.88;8351920;28;20048;-51
2023/01/28 14:20:16;;;;;;;27.40;15.85;;;;;;;3.18;72.32;101964.28;8351086;28;20053;-51
2023/01/28 14:24:18;;;;;;;25.13;15.77;;;;;;;3.16;73.59;101982.16;8351393;28;20037;-53
2023/01/28 14:28:34;;;;;;;27.55;16.45;;;;;;;3.25;73.26;101971.13;8351771;28;20045;-53
2023/01/28 14:32:35;;;;;;;25.58;16.42;;;;;;;3.24;72.37;101976.53;8348386;28;20094;-52
2023/01/28 14:36:39;;;;;;;25.55;16.80;;;;;;;3.28;72.90;101971.00;8349662;28;20037;-51
2023/01/28 14:40:39;;;;;;;30.50;18.23;;;;;;;3.27;72.61;101960.38;8346117;28;20045;-54
2023/01/28 14:44:40;;;;;;;27.88;17.17;;;;;;;3.36;73.59;101966.22;8347336;28;20041;-53
2023/01/28 14:49:07;;;;;;;35.08;18.35;;;;;;;3.38;74.25;101961.69;8344319;28;20147;-55
2023/01/28 14:53:33;;;;;;;31.70;19.00;;;;;;;3.35;74.68;101967.16;8339614;28;20033;-53
2023/01/28 14:57:55;;;;;;;33.00;18.73;;;;;;;3.26;74.73;101947.97;8337972;28;20034;-52
2023/01/28 15:01:58;;;;;;;28.67;17.63;;;;;;;3.12;75.12;101937.81;8335488;28;20048;-54
2023/01/28 15:06:04;;;;;;;34.05;19.33;;;;;;;2.94;76.29;101948.31;8330079;28;20050;-52
2023/01/28 15:10:28;;;;;;;37.55;20.30;;;;;;;2.74;78.22;101946.38;8332159;28;20561;-50
2023/01/28 15:14:31;;;;;;;34.65;20.20;;;;;;;2.65;78.72;101935.19;8336982;28;20037;-54
2023/01/28 15:18:40;;;;;;;41.38;20.90;;;;;;;2.53;78.86;101925.78;8308990;28;20068;-53
2023/01/28 15:22:41;;;;;;;41.45;21.38;;;;;;;2.45;78.74;101927.88;8304932;28;20041;-51
2023/01/28 15:26:46;;;;;;;35.90;20.40;;;;;;;2.38;78.66;101930.81;8317870;28;20041;-53
2023/01/28 15:30:47;;;;;;;38.25;20.33;;;;;;;2.38;79.17;101926.34;8297317;28;20038;-53
2023/01/28 15:34:47;;;;;;;41.72;22.10;;;;;;;2.30;78.69;101923.09;8301534;28;20048;-52
2023/01/28 15:38:48;;;;;;;48.70;22.83;;;;;;;2.17;79.29;101926.25;8290120;28;20068;-57
2023/01/28 15:42:49;;;;;;;44.53;21.95;;;;;;;2.10;79.47;101920.22;8304100;28;20048;-57
2023/01/28 15:46:50;;;;;;;46.38;23.45;;;;;;;2.15;78.89;101923.63;8320080;28;20041;-56
2023/01/28 15:51:08;;;;;;;41.22;21.52;;;;;;;2.17;78.99;101924.44;8318909;28;20064;-51
2023/01/28 15:55:30;;;;;;;41.53;22.98;;;;;;;2.06;79.65;101937.28;8321857;28;20060;-55
2023/01/28 15:59:31;;;;;;;40.00;22.55;;;;;;;1.87;81.37;101945.00;8321595;28;20045;-57
2023/01/28 16:03:33;;;;;;;44.58;23.42;;;;;;;1.66;82.49;101942.19;8322960;28;20042;-57
2023/01/28 16:07:43;;;;;;;85.35;34.60;;;;;;;1.42;84.81;101951.84;8291223;28;20415;-54
2023/01/28 16:11:44;;;;;;;94.68;41.25;;;;;;;1.34;85.12;101947.69;8314283;28;20046;-57
2023/01/28 16:15:47;;;;;;;68.60;32.03;;;;;;;1.26;85.31;101945.25;8299461;28;20040;-58
2023/01/28 16:19:50;;;;;;;48.20;24.70;;;;;;;1.40;86.35;101968.81;8292883;28;20034;-56
2023/01/28 16:23:58;;;;;;;37.03;20.02;;;;;;;1.34;86.55;101963.69;8322896;28;20091;-60
2023/01/28 16:28:00;;;;;;;46.75;21.85;;;;;;;1.18;87.55;101979.25;8281193;28;20120;-59
2023/01/28 16:32:02;;;;;;;43.88;21.33;;;;;;;0.92;88.35;101975.59;8314128;28;20068;-58
2023/01/28 16:36:03;;;;;;;44.10;22.40;;;;;;;0.87;89.41;101982.84;8323197;28;20052;-58
2023/01/28 16:40:04;;;;;;;42.35;22.00;;;;;;;1.00;90.34;102000.19;8318381;28;20133;-56
2023/01/28 16:44:04;;;;;;;40.30;21.83;;;;;;;1.22;88.32;102009.31;8318738;28;20128;-58
2023/01/28 16:48:05;;;;;;;41.30;22.38;;;;;;;1.33;86.59;102013.41;8300448;28;20045;-57
2023/01/28 16:52:06;;;;;;;47.88;23.63;;;;;;;1.51;85.59;102023.50;8320989;28;20033;-59
2023/01/28 16:56:09;;;;;;;48.80;23.60;;;;;;;1.67;84.62;102029.22;8313577;28;20037;-59
2023/01/28 17:00:17;;;;;;;43.93;23.27;;;;;;;1.74;84.47;102039.66;8298266;28;20128;-56
2023/01/28 17:04:17;;;;;;;53.28;25.20;;;;;;;1.81;83.70;102045.66;8309944;28;20042;-56
2023/01/28 17:08:18;;;;;;;51.55;25.50;;;;;;;1.86;83.41;102043.75;8311382;28;20156;-58
2023/01/28 17:12:18;;;;;;;52.30;25.30;;;;;;;1.91;83.66;102052.44;8310085;28;20049;-58
2023/01/28 17:16:18;;;;;;;55.33;27.35;;;;;;;1.98;83.43;102059.31;8311901;28;20520;-59
2023/01/28 17:20:19;;;;;;;58.63;28.98;;;;;;;2.01;83.60;102072.56;8312576;28;20066;-59
2023/01/28 17:24:19;;;;;;;62.42;29.55;;;;;;;2.05;83.31;102071.56;8320779;28;20046;-56
2023/01/28 17:28:20;;;;;;;56.88;30.02;;;;;;;2.08;83.37;102044.78;8320556;28;20038;-55
2023/01/28 17:32:20;;;;;;;68.40;32.20;;;;;;;2.06;84.06;102046.63;8314753;28;20034;-58
2023/01/28 17:36:21;;;;;;;57.67;26.45;;;;;;;2.30;88.19;102040.50;8295403;28;20128;-56
2023/01/28 17:40:22;;;;;;;76.72;32.22;;;;;;;2.10;84.96;102039.41;8311545;28;20037;-58
2023/01/28 17:44:23;;;;;;;64.85;30.40;;;;;;;1.75;85.71;102040.53;8313289;28;20041;-56
2023/01/28 17:48:23;;;;;;;66.90;31.23;;;;;;;1.42;87.90;102038.88;8308692;28;20046;-57
2023/01/28 17:52:24;;;;;;;68.70;30.88;;;;;;;1.36;88.07;102026.63;8318024;28;20034;-53
2023/01/28 17:56:26;;;;;;;71.80;32.17;;;;;;;1.32;87.71;102025.00;8302950;28;20112;-56
2023/01/28 18:00:27;;;;;;;86.57;33.55;;;;;;;1.33;89.44;102028.50;8307762;28;20065;-57
2023/01/28 18:04:28;;;;;;;76.32;32.95;;;;;;;1.24;88.22;102027.00;8310921;28;20045;-57
2023/01/28 18:08:28;;;;;;;69.18;32.75;;;;;;;1.20;89.38;102036.00;8299671;28;20039;-57
2023/01/28 18:12:29;;;;;;;84.60;34.50;;;;;;;1.26;90.62;102029.63;8302440;28;20047;-56
2023/01/28 18:16:29;;;;;;;86.53;35.75;;;;;;;1.28;91.59;102039.28;8291860;28;20069;-57
2023/01/28 18:20:29;;;;;;;101.15;43.10;;;;;;;1.39;89.71;102054.97;8309236;28;20454;-55
2023/01/28 18:24:30;;;;;;;79.47;33.47;;;;;;;1.48;89.67;102068.00;8281866;28;20049;-55
2023/01/28 18:28:31;;;;;;;71.22;32.03;;;;;;;1.47;89.48;102084.94;8313895;28;20095;-57
2023/01/28 18:32:31;;;;;;;67.32;31.00;;;;;;;1.55;88.81;102082.91;8311585;28;20111;-57
2023/01/28 18:36:31;;;;;;;70.90;32.30;;;;;;;1.60;88.05;102088.97;8301610;28;20455;-57
2023/01/28 18:40:32;;;;;;;77.63;32.70;;;;;;;1.43;87.01;102086.81;8300407;28;20065;-54
2023/01/28 18:44:33;;;;;;;71.00;31.92;;;;;;;1.24;87.79;102087.38;8312189;28;20140;-57
2023/01/28 18:48:34;;;;;;;80.18;36.15;;;;;;;1.04;89.53;102097.72;8304804;28;20387;-55
2023/01/28 18:52:34;;;;;;;87.65;34.50;;;;;;;1.25;90.84;102107.78;8313119;28;20033;-57
2023/01/28 18:56:36;;;;;;;85.95;37.63;;;;;;;0.97;90.28;102097.00;8316940;28;20400;-57
2023/01/28 19:00:37;;;;;;;83.68;36.40;;;;;;;0.73;91.69;102081.69;8313348;28;20042;-54
2023/01/28 19:04:37;;;;;;;79.57;35.55;;;;;;;0.60;91.65;102082.94;8308864;28;20068;-56
2023/01/28 19:08:38;;;;;;;81.70;36.25;;;;;;;0.62;92.16;102099.75;8317621;28;20128;-56
2023/01/28 19:12:38;;;;;;;79.47;35.15;;;;;;;0.66;93.67;102105.84;8316630;28;20572;-55
2023/01/28 19:16:39;;;;;;;74.30;32.58;;;;;;;0.55;93.23;102114.09;8315262;28;20435;-55
2023/01/28 19:20:40;;;;;;;78.80;32.85;;;;;;;0.34;93.34;102113.78;8316381;28;20059;-53
2023/01/28 19:24:42;;;;;;;78.13;32.17;;;;;;;0.24;93.77;102122.88;8316479;28;20045;-54
2023/01/28 19:28:42;;;;;;;82.45;35.63;;;;;;;0.18;94.46;102112.41;8317992;28;20128;-57
2023/01/28 19:32:43;;;;;;;80.43;33.42;;;;;;;0.24;93.88;102114.91;8322265;28;20053;-57
2023/01/28 19:36:44;;;;;;;75.57;32.78;;;;;;;0.25;93.77;102119.31;8320277;28;20053;-54
2023/01/28 19:40:44;;;;;;;77.70;31.40;;;;;;;0.26;93.34;102107.75;8322914;28;20063;-57
2023/01/28 19:44:45;;;;;;;82.50;33.20;;;;;;;0.26;93.13;102103.31;8321342;28;20587;-58
2023/01/28 19:48:45;;;;;;;76.55;32.13;;;;;;;0.17;93.29;102105.31;8321279;28;20116;-57